Aeroporto :
LOGIN :

Iscrizione | Disclaimer

   EN    FR    IT 

 










Sommario :    VFR   VFR Marginale   IFR   IFR Intensivo   IFR Molto Intensivo
Visibilità : 
Base nubi : 
>= 8 km
>= 3000ft
5 / 8 km
1000 / 3000 ft
1500m / 5 km
500 / 1000 ft
800 / 1500m
200 / 500 ft
< 800m
< 200 ft
Simboli :   Temporali  Nebbia  Neve Forte  Precipitazioni Forti  Vento > 20 kt
SIGMETs :   Varie  Temporali  Ghiacco  Turbolenza  Onda orograficha  Ceneri Vulcaniche







- Altitudine del aeroporto : 23 ft
- Codice IATA : XFW


EDHI - Hamburg Finkenwerder

ULTIMO METAR :
  • 221820Z 31011KT 280V340 9999 FEW024 13/07 Q1017

METARs OBSOLETI :
  • 221750Z 31010KT 280V340 9999 FEW024 13/07 Q1017
  • 221720Z 31011KT 280V350 9999 FEW020 13/07 Q1017
  • 221650Z 30013KT 9999 FEW027 13/07 Q1017
  • 221620Z 30011KT 270V360 9999 SCT027 14/08 Q1017
  • 221550Z 29014KT 9999 SCT027 14/08 Q1017
  • 221520Z 30013KT 270V330 9999 SCT028 14/08 Q1017

TAF TAF EDHI
Valido dal 22 a 18 ore il 22 a 21 ore UTC


221700Z 2218/2221 30012G22KT 9999 SCT030
BECMG 2218/2220 29006KT
Nessun NOTAM noto per questo aeroporto.



MetMap, La meteo Aeronautica in un colpo d'occhio ! - Copyright ORBIFLY Dicembre 2007 - Disclaimer

ORBIFLY MET'MAP TEAM :

Programmazione e sviluppo : Alexandra Zaïnal
Concezione e sviluppo : Baudouin d'Aumeries
Co-Programmazione e sviluppo : Marc-Olivier Méhu
Supporto tecnico e logistico : Manuel Goepfert
Aiuto per la traduzione : Arnaldo La Scala

Contatto : metmap@orbifly.com




FONTI E CREDITI :

   NOAA